Padre Island — WDB4436 — position and weather

sailwx.info

Track history (hours):
 
Tides and Currents Weather Stations Pressure Air Temp Water Temp Dewpoint Dewpoint Depression Visibility Wind Speed Wind Dir Waves Ship Positions

Padre Island

Owner: Great Lakes Dredge & Dock Company, Oak Brook, IL. More information available from US FCC via Universal Licensing System and Coast Guard Vessel Documentation Center.

Last reported at 2016-Jun-28 23:33 UTC. Time now 2016-Jun-29 00:18 UTC.
Position N 39°33' W 074°13'.

Length 86 m; draft 19.6 m.

Type: Dredging. MMSI: 367525000.

Date/timePositionNaut miles runAvg speedWind from/ knotsBaromVisibWave heightAir tempDewpointWater temp
2016-Jun-28 23:33N 39°33' W 074°13'1 1.0
2016-Jun-28 22:25N 39°32' W 074°14'1 1.3
2016-Jun-28 21:33N 39°32' W 074°13'8 8.4
2016-Jun-28 20:33N 39°39' W 074°06'3 2.7
2016-Jun-28 19:32N 39°41' W 074°04'9 9.2
2016-Jun-28 18:33N 39°34' W 074°12'3 3.0
2016-Jun-28 17:33N 39°32' W 074°15'7 6.8
2016-Jun-28 16:33N 39°37' W 074°09'6 5.6
2016-Jun-28 15:33N 39°41' W 074°03'4 4.2
2016-Jun-28 14:33N 39°38' W 074°07'8 8.1
2016-Jun-28 13:33N 39°32' W 074°15'0 0.0
2016-Jun-28 12:33N 39°32' W 074°15'7 6.8
2016-Jun-28 11:33N 39°37' W 074°08'5 5.5
2016-Jun-28 10:33N 39°41' W 074°03'4 4.4
2016-Jun-28 09:33N 39°38' W 074°08'8 8.0
2016-Jun-28 08:33N 39°32' W 074°15'1 1.2
2016-Jun-28 07:32N 39°33' W 074°13'10 8.5
2016-Jun-28 06:19N 39°40' W 074°04'8 4.6
2016-Jun-28 04:33N 39°34' W 074°11'4 3.5
2016-Jun-28 03:33N 39°32' W 074°15'3 3.3
2016-Jun-28 02:33N 39°34' W 074°11'9 8.4
2016-Jun-28 01:32N 39°41' W 074°04'1 0.8
2016-Jun-28 00:33N 39°41' W 074°03'10 9.2
2016-Jun-27 23:30N 39°34' W 074°12'3 3.1
2016-Jun-27 22:32N 39°32' W 074°15'2 2.5
2016-Jun-27 21:33N 39°34' W 074°12'9 8.6
2016-Jun-27 20:33N 39°40' W 074°05'1 0.9
2016-Jun-27 19:33N 39°41' W 074°04'1010.3
2016-Jun-27 18:33N 39°33' W 074°13'2 1.6
2016-Jun-27 17:30N 39°32' W 074°15'7 7.1
2016-Jun-27 16:33N 39°37' W 074°08'5 5.4
2016-Jun-27 15:33N 39°41' W 074°04'3 3.2
2016-Jun-27 14:33N 39°38' W 074°07'9 8.5
2016-Jun-27 13:30N 39°32' W 074°15'0 0.1
2016-Jun-27 12:18N 39°32' W 074°14'6 7.9
2016-Jun-27 11:30N 39°36' W 074°08'6 6.3
2016-Jun-27 10:33N 39°41' W 074°03'4 3.7
2016-Jun-27 09:33N 39°38' W 074°07'9 8.5
2016-Jun-27 08:33N 39°32' W 074°15'1 0.8
2016-Jun-27 07:33N 39°32' W 074°14'9 8.9
2016-Jun-27 06:34N 39°39' W 074°06'3 2.5
2016-Jun-27 05:33N 39°41' W 074°04'9 9.0
2016-Jun-27 04:33N 39°34' W 074°12'3 3.1
2016-Jun-27 03:33N 39°32' W 074°15'6 6.0
2016-Jun-27 02:34N 39°36' W 074°09'6 6.3
2016-Jun-27 01:33N 39°41' W 074°03'4 3.9
2016-Jun-27 00:33N 39°38' W 074°07'8 8.4
2016-Jun-26 23:33N 39°32' W 074°15'0 0.0
2016-Jun-26 22:33N 39°32' W 074°15'7 6.6
2016-Jun-26 21:33N 39°37' W 074°08'6 5.7
2016-Jun-26 20:33N 39°41' W 074°03'6 5.6
2016-Jun-26 19:33N 39°37' W 074°08'7 5.6
2016-Jun-26 18:19N 39°32' W 074°15'1 1.0
2016-Jun-26 17:33N 39°32' W 074°14'9 9.3
2016-Jun-26 16:33N 39°39' W 074°06'2 2.1
2016-Jun-26 15:33N 39°41' W 074°04'4 4.0
2016-Jun-26 14:33N 39°38' W 074°07'8 8.1
2016-Jun-26 13:33N 39°32' W 074°15'0 0.0
2016-Jun-26 12:33N 39°32' W 074°15'7 6.7
2016-Jun-26 11:33N 39°37' W 074°08'6 5.7
2016-Jun-26 10:33N 39°41' W 074°03'5 4.9
2016-Jun-26 09:33N 39°37' W 074°08'8 7.6
2016-Jun-26 08:33N 39°32' W 074°15'1 0.9
2016-Jun-26 07:33N 39°32' W 074°14'9 9.3
2016-Jun-26 06:33N 39°39' W 074°06'2 2.0
2016-Jun-26 05:33N 39°41' W 074°04'9 9.4
2016-Jun-26 04:33N 39°34' W 074°12'3 2.8
2016-Jun-26 03:33N 39°32' W 074°15'6 5.9
2016-Jun-26 02:33N 39°36' W 074°09'7 6.6
2016-Jun-26 01:33N 39°41' W 074°03'5 5.2
2016-Jun-26 00:33N 39°37' W 074°08'7 7.2
2016-Jun-25 23:33N 39°32' W 074°15'0 0.0
2016-Jun-25 22:33N 39°32' W 074°15'9 8.6
2016-Jun-25 21:33N 39°38' W 074°07'4 3.8
2016-Jun-25 20:32N 39°41' W 074°03'7 7.3
2016-Jun-25 19:33N 39°36' W 074°10'5 5.3
2016-Jun-25 18:33N 39°32' W 074°15'4 4.1
2016-Jun-25 17:33N 39°35' W 074°11'9 8.6
2016-Jun-25 16:33N 39°41' W 074°03'2 1.7
2016-Jun-25 15:33N 39°40' W 074°05'9 9.3
2016-Jun-25 14:33N 39°33' W 074°13'2 1.8
2016-Jun-25 13:33N 39°32' W 074°15'2 1.8
2016-Jun-25 12:23N 39°33' W 074°12'8 9.3
2016-Jun-25 11:33N 39°39' W 074°06'3 3.0
2016-Jun-25 10:33N 39°41' W 074°03'9 8.5
2016-Jun-25 09:32N 39°35' W 074°11'4 4.1
2016-Jun-25 08:34N 39°32' W 074°15'2 1.8
2016-Jun-25 07:32N 39°32' W 074°12'9 8.9
2016-Jun-25 06:33N 39°39' W 074°06'2 1.8
2016-Jun-25 05:33N 39°41' W 074°04'10 9.4
2016-Jun-25 04:32N 39°34' W 074°12'3 2.6
2016-Jun-25 03:31N 39°32' W 074°15'0 0.4
2016-Jun-25 02:30N 39°32' W 074°14'6 6.6
2016-Jun-25 01:32N 39°36' W 074°09'6 5.9
2016-Jun-25 00:33N 39°41' W 074°04'3 2.9
2016-Jun-24 23:33N 39°44' W 074°03'4310.5
2016-Jun-24 19:28N 40°26' W 073°56'9 1.2
2016-Jun-24 11:25N 40°29' W 074°07'11 8.5
2016-Jun-24 10:06N 40°23' W 073°55'1810.8
2016-Jun-24 08:24N 40°05' W 073°59'910.8
2016-Jun-24 07:33N 39°55' W 074°00'26 8.6
2016-Jun-24 04:33N 39°32' W 074°15'2 2.4
2016-Jun-24 03:33N 39°33' W 074°12'9 8.8
2016-Jun-24 02:32N 39°40' W 074°04'1 1.3
2016-Jun-24 01:33N 39°41' W 074°03'10 9.9
2016-Jun-24 00:33N 39°34' W 074°12'3 2.8
2016-Jun-23 23:33N 39°32' W 074°15'3 3.3
2016-Jun-23 22:33N 39°34' W 074°11'9 9.0
2016-Jun-23 21:33N 39°41' W 074°04'1 0.5
2016-Jun-23 20:33N 39°40' W 074°04'1010.0
2016-Jun-23 19:33N 39°33' W 074°13'2 1.7
2016-Jun-23 18:33N 39°32' W 074°15'6 5.5
2016-Jun-23 17:33N 39°36' W 074°09'7 6.8
2016-Jun-23 16:33N 39°41' W 074°03'1 1.2
2016-Jun-23 15:33N 39°40' W 074°05'1110.9
2016-Jun-23 14:33N 39°32' W 074°14'1 0.5
2016-Jun-23 13:31N 39°32' W 074°15'5 5.6
2016-Jun-23 12:33N 39°36' W 074°10'7 6.6
2016-Jun-23 11:32N 39°41' W 074°04'1 0.8
2016-Jun-23 10:30N 39°41' W 074°03'8 8.3
2016-Jun-23 09:33N 39°35' W 074°10'5 4.9
2016-Jun-23 08:33N 39°32' W 074°15'4 3.9
2016-Jun-23 07:33N 39°35' W 074°11'8 3.8
2016-Jun-23 05:33N 39°40' W 074°04'1010.3
2016-Jun-23 04:33N 39°33' W 074°13'1 1.2
2016-Jun-23 03:33N 39°32' W 074°15'4 3.5
2016-Jun-23 02:33N 39°34' W 074°11'8 8.5
2016-Jun-23 01:33N 39°41' W 074°04'1 0.7
2016-Jun-23 00:33N 39°41' W 074°03'10 9.8
2016-Jun-22 23:33N 39°34' W 074°12'3 2.8
2016-Jun-22 22:33N 39°32' W 074°14'2 2.5
2016-Jun-22 21:33N 39°33' W 074°12'9 9.0
2016-Jun-22 20:33N 39°40' W 074°04'1 1.0
2016-Jun-22 19:33N 39°41' W 074°03'7 7.5
2016-Jun-22 18:33N 39°35' W 074°10'5 4.9
2016-Jun-22 17:32N 39°32' W 074°14'2 1.9
2016-Jun-22 16:33N 39°33' W 074°13'9 8.9
2016-Jun-22 15:33N 39°40' W 074°05'1 0.9
2016-Jun-22 14:33N 39°40' W 074°04'8 8.3
2016-Jun-22 13:33N 39°34' W 074°12'3 3.2
2016-Jun-22 12:33N 39°32' W 074°15'2 2.3
2016-Jun-22 11:32N 39°34' W 074°12'10 8.3
2016-Jun-22 10:23N 39°41' W 074°04'1 0.7
2016-Jun-22 09:33N 39°40' W 074°04'1010.2
2016-Jun-22 08:33N 39°33' W 074°13'1 1.3
2016-Jun-22 07:33N 39°32' W 074°15'5 4.6
2016-Jun-22 06:33N 39°35' W 074°10'7 7.3
2016-Jun-22 05:33N 39°41' W 074°04'5 4.9
2016-Jun-22 04:33N 39°37' W 074°08'7 7.0
2016-Jun-22 03:33N 39°32' W 074°14'0 0.0
2016-Jun-22 02:32N 39°32' W 074°14'7 7.0
2016-Jun-22 01:33N 39°37' W 074°09'5 4.9
2016-Jun-22 00:32N 39°41' W 074°04'8 8.0
2016-Jun-21 23:33N 39°35' W 074°11'4 4.1
2016-Jun-21 22:33N 39°32' W 074°14'0 0.1
2016-Jun-21 21:32N 39°32' W 074°14'7 7.4
2016-Jun-21 20:33N 39°37' W 074°08'5 4.8
2016-Jun-21 19:33N 39°41' W 074°04'8 7.6
2016-Jun-21 18:33N 39°35' W 074°10'4 4.4
2016-Jun-21 17:33N 39°32' W 074°15'1 1.2
2016-Jun-21 16:33N 39°33' W 074°13'9 8.8
2016-Jun-21 15:33N 39°39' W 074°06'1 1.2
2016-Jun-21 14:33N 39°40' W 074°05'1010.2
2016-Jun-21 13:33N 39°32' W 074°14'1 0.8
2016-Jun-21 12:28N 39°32' W 074°14'3 2.8
2016-Jun-21 11:25N 39°34' W 074°12'7 8.7
2016-Jun-21 10:33N 39°40' W 074°05'0 0.3
2016-Jun-21 09:33N 39°39' W 074°06'1010.0
2016-Jun-21 08:33N 39°32' W 074°15'0 0.0
2016-Jun-21 07:33N 39°32' W 074°14'12 6.1
2016-Jun-21 05:33N 39°41' W 074°04'9 8.7
2016-Jun-21 04:33N 39°34' W 074°11'3 3.4
2016-Jun-21 03:33N 39°32' W 074°14'0 0.0
2016-Jun-21 02:28N 39°32' W 074°14'0 0.0
2016-Jun-21 01:33N 39°32' W 074°15'2 1.9
2016-Jun-21 00:33N 39°33' W 074°13'8 8.4
2016-Jun-20 23:33N 39°40' W 074°06'1 1.4
2016-Jun-20 22:33N 39°41' W 074°04'10 9.8
2016-Jun-20 21:33N 39°33' W 074°13'2 2.0
2016-Jun-20 20:32N 39°32' W 074°15'3 3.1
2016-Jun-20 19:33N 39°34' W 074°12'9 9.2
2016-Jun-20 18:33N 39°41' W 074°04'4 3.9
2016-Jun-20 17:33N 39°38' W 074°07'5 5.2
2016-Jun-20 16:33N 39°34' W 074°12'3 3.0
2016-Jun-20 15:33N 39°32' W 074°15'2 1.6
2016-Jun-20 14:34N 39°33' W 074°13'3 2.5
2016-Jun-20 13:33N 39°35' W 074°11'8 8.1
2016-Jun-20 12:33N 39°41' W 074°04'2 1.9
2016-Jun-20 11:33N 39°39' W 074°06'1010.1
2016-Jun-20 10:32N 39°32' W 074°15'0 0.1
2016-Jun-20 09:33N 39°32' W 074°15'0 0.4
2016-Jun-20 08:32N 39°32' W 074°14'8 7.5
2016-Jun-20 07:32N 39°37' W 074°07'5 4.6
2016-Jun-20 06:33N 39°41' W 074°04'9 9.4
2016-Jun-20 05:33N 39°34' W 074°12'3 2.8
2016-Jun-20 04:33N 39°32' W 074°15'1 0.8
2016-Jun-20 03:33N 39°32' W 074°14'8 8.5
2016-Jun-20 02:33N 39°39' W 074°06'3 3.3
2016-Jun-20 01:33N 39°41' W 074°04'9 8.9
2016-Jun-20 00:33N 39°35' W 074°11'4 3.4
2016-Jun-19 23:29N 39°32' W 074°15'0 0.2
2016-Jun-19 22:33N 39°32' W 074°14'8 8.2
2016-Jun-19 21:33N 39°38' W 074°07'4 3.7
2016-Jun-19 20:33N 39°41' W 074°04'1010.2
2016-Jun-19 19:33N 39°33' W 074°12'2 2.0
2016-Jun-19 18:33N 39°32' W 074°15'3 2.8
2016-Jun-19 17:32N 39°34' W 074°12'9 9.0
2016-Jun-19 16:33N 39°41' W 074°04'4 3.6
2016-Jun-19 15:33N 39°38' W 074°07'8 8.2
2016-Jun-19 14:33N 39°32' W 074°15'0 0.0
2016-Jun-19 13:32N 39°32' W 074°15'5 5.5
2016-Jun-19 12:33N 39°36' W 074°10'7 6.7
2016-Jun-19 11:33N 39°41' W 074°04'6 5.6
2016-Jun-19 10:33N 39°37' W 074°08'7 6.7
2016-Jun-19 09:33N 39°32' W 074°15'0 0.0
2016-Jun-19 08:33N 39°32' W 074°14'8 7.7
2016-Jun-19 07:33N 39°38' W 074°08'4 4.1
2016-Jun-19 06:33N 39°41' W 074°04'9 9.2
2016-Jun-19 05:33N 39°34' W 074°12'3 2.7
2016-Jun-19 04:33N 39°32' W 074°15'3 3.4
2016-Jun-19 03:33N 39°34' W 074°11'9 8.8
2016-Jun-19 02:33N 39°41' W 074°04'4 3.7
2016-Jun-19 01:33N 39°38' W 074°07'8 8.4
2016-Jun-19 00:33N 39°32' W 074°15'  
Track history (hours):
 
Tides and Currents Weather Stations Pressure Air Temp Water Temp Dewpoint Dewpoint Depression Visibility Wind Speed Wind Dir Waves Ship Positions

Padre Island

Owner: Great Lakes Dredge & Dock Company, Oak Brook, IL. More information available from US FCC via Universal Licensing System and Coast Guard Vessel Documentation Center.

Last reported at 2016-Jun-28 23:33 UTC. Time now 2016-Jun-29 00:18 UTC.
Position N 39°33' W 074°13'.

Length 86 m; draft 19.6 m.

Type: Dredging. MMSI: 367525000.

Date/timePositionNaut miles runAvg speedWind from/ knotsBaromVisibWave heightAir tempDewpointWater temp
2016-Jun-28 23:33N 39°33' W 074°13'1 1.0
2016-Jun-28 22:25N 39°32' W 074°14'1 1.3
2016-Jun-28 21:33N 39°32' W 074°13'8 8.4
2016-Jun-28 20:33N 39°39' W 074°06'3 2.7
2016-Jun-28 19:32N 39°41' W 074°04'9 9.2
2016-Jun-28 18:33N 39°34' W 074°12'3 3.0
2016-Jun-28 17:33N 39°32' W 074°15'7 6.8
2016-Jun-28 16:33N 39°37' W 074°09'6 5.6
2016-Jun-28 15:33N 39°41' W 074°03'4 4.2
2016-Jun-28 14:33N 39°38' W 074°07'8 8.1
2016-Jun-28 13:33N 39°32' W 074°15'0 0.0
2016-Jun-28 12:33N 39°32' W 074°15'7 6.8
2016-Jun-28 11:33N 39°37' W 074°08'5 5.5
2016-Jun-28 10:33N 39°41' W 074°03'4 4.4
2016-Jun-28 09:33N 39°38' W 074°08'8 8.0
2016-Jun-28 08:33N 39°32' W 074°15'1 1.2
2016-Jun-28 07:32N 39°33' W 074°13'10 8.5
2016-Jun-28 06:19N 39°40' W 074°04'8 4.6
2016-Jun-28 04:33N 39°34' W 074°11'4 3.5
2016-Jun-28 03:33N 39°32' W 074°15'3 3.3
2016-Jun-28 02:33N 39°34' W 074°11'9 8.4
2016-Jun-28 01:32N 39°41' W 074°04'1 0.8
2016-Jun-28 00:33N 39°41' W 074°03'10 9.2
2016-Jun-27 23:30N 39°34' W 074°12'3 3.1
2016-Jun-27 22:32N 39°32' W 074°15'2 2.5
2016-Jun-27 21:33N 39°34' W 074°12'9 8.6
2016-Jun-27 20:33N 39°40' W 074°05'1 0.9
2016-Jun-27 19:33N 39°41' W 074°04'1010.3
2016-Jun-27 18:33N 39°33' W 074°13'2 1.6
2016-Jun-27 17:30N 39°32' W 074°15'7 7.1
2016-Jun-27 16:33N 39°37' W 074°08'5 5.4
2016-Jun-27 15:33N 39°41' W 074°04'3 3.2
2016-Jun-27 14:33N 39°38' W 074°07'9 8.5
2016-Jun-27 13:30N 39°32' W 074°15'0 0.1
2016-Jun-27 12:18N 39°32' W 074°14'6 7.9
2016-Jun-27 11:30N 39°36' W 074°08'6 6.3
2016-Jun-27 10:33N 39°41' W 074°03'4 3.7
2016-Jun-27 09:33N 39°38' W 074°07'9 8.5
2016-Jun-27 08:33N 39°32' W 074°15'1 0.8
2016-Jun-27 07:33N 39°32' W 074°14'9 8.9
2016-Jun-27 06:34N 39°39' W 074°06'3 2.5
2016-Jun-27 05:33N 39°41' W 074°04'9 9.0
2016-Jun-27 04:33N 39°34' W 074°12'3 3.1
2016-Jun-27 03:33N 39°32' W 074°15'6 6.0
2016-Jun-27 02:34N 39°36' W 074°09'6 6.3
2016-Jun-27 01:33N 39°41' W 074°03'4 3.9
2016-Jun-27 00:33N 39°38' W 074°07'8 8.4
2016-Jun-26 23:33N 39°32' W 074°15'0 0.0
2016-Jun-26 22:33N 39°32' W 074°15'7 6.6
2016-Jun-26 21:33N 39°37' W 074°08'6 5.7
2016-Jun-26 20:33N 39°41' W 074°03'6 5.6
2016-Jun-26 19:33N 39°37' W 074°08'7 5.6
2016-Jun-26 18:19N 39°32' W 074°15'1 1.0
2016-Jun-26 17:33N 39°32' W 074°14'9 9.3
2016-Jun-26 16:33N 39°39' W 074°06'2 2.1
2016-Jun-26 15:33N 39°41' W 074°04'4 4.0
2016-Jun-26 14:33N 39°38' W 074°07'8 8.1
2016-Jun-26 13:33N 39°32' W 074°15'0 0.0
2016-Jun-26 12:33N 39°32' W 074°15'7 6.7
2016-Jun-26 11:33N 39°37' W 074°08'6 5.7
2016-Jun-26 10:33N 39°41' W 074°03'5 4.9
2016-Jun-26 09:33N 39°37' W 074°08'8 7.6
2016-Jun-26 08:33N 39°32' W 074°15'1 0.9
2016-Jun-26 07:33N 39°32' W 074°14'9 9.3
2016-Jun-26 06:33N 39°39' W 074°06'2 2.0
2016-Jun-26 05:33N 39°41' W 074°04'9 9.4
2016-Jun-26 04:33N 39°34' W 074°12'3 2.8
2016-Jun-26 03:33N 39°32' W 074°15'6 5.9
2016-Jun-26 02:33N 39°36' W 074°09'7 6.6
2016-Jun-26 01:33N 39°41' W 074°03'5 5.2
2016-Jun-26 00:33N 39°37' W 074°08'7 7.2
2016-Jun-25 23:33N 39°32' W 074°15'0 0.0
2016-Jun-25 22:33N 39°32' W 074°15'9 8.6
2016-Jun-25 21:33N 39°38' W 074°07'4 3.8
2016-Jun-25 20:32N 39°41' W 074°03'7 7.3
2016-Jun-25 19:33N 39°36' W 074°10'5 5.3
2016-Jun-25 18:33N 39°32' W 074°15'4 4.1
2016-Jun-25 17:33N 39°35' W 074°11'9 8.6
2016-Jun-25 16:33N 39°41' W 074°03'2 1.7
2016-Jun-25 15:33N 39°40' W 074°05'9 9.3
2016-Jun-25 14:33N 39°33' W 074°13'2 1.8
2016-Jun-25 13:33N 39°32' W 074°15'2 1.8
2016-Jun-25 12:23N 39°33' W 074°12'8 9.3
2016-Jun-25 11:33N 39°39' W 074°06'3 3.0
2016-Jun-25 10:33N 39°41' W 074°03'9 8.5
2016-Jun-25 09:32N 39°35' W 074°11'4 4.1
2016-Jun-25 08:34N 39°32' W 074°15'2 1.8
2016-Jun-25 07:32N 39°32' W 074°12'9 8.9
2016-Jun-25 06:33N 39°39' W 074°06'2 1.8
2016-Jun-25 05:33N 39°41' W 074°04'10 9.4
2016-Jun-25 04:32N 39°34' W 074°12'3 2.6
2016-Jun-25 03:31N 39°32' W 074°15'0 0.4
2016-Jun-25 02:30N 39°32' W 074°14'6 6.6
2016-Jun-25 01:32N 39°36' W 074°09'6 5.9
2016-Jun-25 00:33N 39°41' W 074°04'3 2.9
2016-Jun-24 23:33N 39°44' W 074°03'4310.5
2016-Jun-24 19:28N 40°26' W 073°56'9 1.2
2016-Jun-24 11:25N 40°29' W 074°07'11 8.5
2016-Jun-24 10:06N 40°23' W 073°55'1810.8
2016-Jun-24 08:24N 40°05' W 073°59'910.8
2016-Jun-24 07:33N 39°55' W 074°00'26 8.6
2016-Jun-24 04:33N 39°32' W 074°15'2 2.4
2016-Jun-24 03:33N 39°33' W 074°12'9 8.8
2016-Jun-24 02:32N 39°40' W 074°04'1 1.3
2016-Jun-24 01:33N 39°41' W 074°03'10 9.9
2016-Jun-24 00:33N 39°34' W 074°12'3 2.8
2016-Jun-23 23:33N 39°32' W 074°15'3 3.3
2016-Jun-23 22:33N 39°34' W 074°11'9 9.0
2016-Jun-23 21:33N 39°41' W 074°04'1 0.5
2016-Jun-23 20:33N 39°40' W 074°04'1010.0
2016-Jun-23 19:33N 39°33' W 074°13'2 1.7
2016-Jun-23 18:33N 39°32' W 074°15'6 5.5
2016-Jun-23 17:33N 39°36' W 074°09'7 6.8
2016-Jun-23 16:33N 39°41' W 074°03'1 1.2
2016-Jun-23 15:33N 39°40' W 074°05'1110.9
2016-Jun-23 14:33N 39°32' W 074°14'1 0.5
2016-Jun-23 13:31N 39°32' W 074°15'5 5.6
2016-Jun-23 12:33N 39°36' W 074°10'7 6.6
2016-Jun-23 11:32N 39°41' W 074°04'1 0.8
2016-Jun-23 10:30N 39°41' W 074°03'8 8.3
2016-Jun-23 09:33N 39°35' W 074°10'5 4.9
2016-Jun-23 08:33N 39°32' W 074°15'4 3.9
2016-Jun-23 07:33N 39°35' W 074°11'8 3.8
2016-Jun-23 05:33N 39°40' W 074°04'1010.3
2016-Jun-23 04:33N 39°33' W 074°13'1 1.2
2016-Jun-23 03:33N 39°32' W 074°15'4 3.5
2016-Jun-23 02:33N 39°34' W 074°11'8 8.5
2016-Jun-23 01:33N 39°41' W 074°04'1 0.7
2016-Jun-23 00:33N 39°41' W 074°03'10 9.8
2016-Jun-22 23:33N 39°34' W 074°12'3 2.8
2016-Jun-22 22:33N 39°32' W 074°14'2 2.5
2016-Jun-22 21:33N 39°33' W 074°12'9 9.0
2016-Jun-22 20:33N 39°40' W 074°04'1 1.0
2016-Jun-22 19:33N 39°41' W 074°03'7 7.5
2016-Jun-22 18:33N 39°35' W 074°10'5 4.9
2016-Jun-22 17:32N 39°32' W 074°14'2 1.9
2016-Jun-22 16:33N 39°33' W 074°13'9 8.9
2016-Jun-22 15:33N 39°40' W 074°05'1 0.9
2016-Jun-22 14:33N 39°40' W 074°04'8 8.3
2016-Jun-22 13:33N 39°34' W 074°12'3 3.2
2016-Jun-22 12:33N 39°32' W 074°15'2 2.3
2016-Jun-22 11:32N 39°34' W 074°12'10 8.3
2016-Jun-22 10:23N 39°41' W 074°04'1 0.7
2016-Jun-22 09:33N 39°40' W 074°04'1010.2
2016-Jun-22 08:33N 39°33' W 074°13'1 1.3
2016-Jun-22 07:33N 39°32' W 074°15'5 4.6
2016-Jun-22 06:33N 39°35' W 074°10'7 7.3
2016-Jun-22 05:33N 39°41' W 074°04'5 4.9
2016-Jun-22 04:33N 39°37' W 074°08'7 7.0
2016-Jun-22 03:33N 39°32' W 074°14'0 0.0
2016-Jun-22 02:32N 39°32' W 074°14'7 7.0
2016-Jun-22 01:33N 39°37' W 074°09'5 4.9
2016-Jun-22 00:32N 39°41' W 074°04'8 8.0
2016-Jun-21 23:33N 39°35' W 074°11'4 4.1
2016-Jun-21 22:33N 39°32' W 074°14'0 0.1
2016-Jun-21 21:32N 39°32' W 074°14'7 7.4
2016-Jun-21 20:33N 39°37' W 074°08'5 4.8
2016-Jun-21 19:33N 39°41' W 074°04'8 7.6
2016-Jun-21 18:33N 39°35' W 074°10'4 4.4
2016-Jun-21 17:33N 39°32' W 074°15'1 1.2
2016-Jun-21 16:33N 39°33' W 074°13'9 8.8
2016-Jun-21 15:33N 39°39' W 074°06'1 1.2
2016-Jun-21 14:33N 39°40' W 074°05'1010.2
2016-Jun-21 13:33N 39°32' W 074°14'1 0.8
2016-Jun-21 12:28N 39°32' W 074°14'3 2.8
2016-Jun-21 11:25N 39°34' W 074°12'7 8.7
2016-Jun-21 10:33N 39°40' W 074°05'0 0.3
2016-Jun-21 09:33N 39°39' W 074°06'1010.0
2016-Jun-21 08:33N 39°32' W 074°15'0 0.0
2016-Jun-21 07:33N 39°32' W 074°14'12 6.1
2016-Jun-21 05:33N 39°41' W 074°04'9 8.7
2016-Jun-21 04:33N 39°34' W 074°11'3 3.4
2016-Jun-21 03:33N 39°32' W 074°14'0 0.0
2016-Jun-21 02:28N 39°32' W 074°14'0 0.0
2016-Jun-21 01:33N 39°32' W 074°15'2 1.9
2016-Jun-21 00:33N 39°33' W 074°13'8 8.4
2016-Jun-20 23:33N 39°40' W 074°06'1 1.4
2016-Jun-20 22:33N 39°41' W 074°04'10 9.8
2016-Jun-20 21:33N 39°33' W 074°13'2 2.0
2016-Jun-20 20:32N 39°32' W 074°15'3 3.1
2016-Jun-20 19:33N 39°34' W 074°12'9 9.2
2016-Jun-20 18:33N 39°41' W 074°04'4 3.9
2016-Jun-20 17:33N 39°38' W 074°07'5 5.2
2016-Jun-20 16:33N 39°34' W 074°12'3 3.0
2016-Jun-20 15:33N 39°32' W 074°15'2 1.6
2016-Jun-20 14:34N 39°33' W 074°13'3 2.5
2016-Jun-20 13:33N 39°35' W 074°11'8 8.1
2016-Jun-20 12:33N 39°41' W 074°04'2 1.9
2016-Jun-20 11:33N 39°39' W 074°06'1010.1
2016-Jun-20 10:32N 39°32' W 074°15'0 0.1
2016-Jun-20 09:33N 39°32' W 074°15'0 0.4
2016-Jun-20 08:32N 39°32' W 074°14'8 7.5
2016-Jun-20 07:32N 39°37' W 074°07'5 4.6
2016-Jun-20 06:33N 39°41' W 074°04'9 9.4
2016-Jun-20 05:33N 39°34' W 074°12'3 2.8
2016-Jun-20 04:33N 39°32' W 074°15'1 0.8
2016-Jun-20 03:33N 39°32' W 074°14'8 8.5
2016-Jun-20 02:33N 39°39' W 074°06'3 3.3
2016-Jun-20 01:33N 39°41' W 074°04'9 8.9
2016-Jun-20 00:33N 39°35' W 074°11'4 3.4
2016-Jun-19 23:29N 39°32' W 074°15'0 0.2
2016-Jun-19 22:33N 39°32' W 074°14'8 8.2
2016-Jun-19 21:33N 39°38' W 074°07'4 3.7
2016-Jun-19 20:33N 39°41' W 074°04'1010.2
2016-Jun-19 19:33N 39°33' W 074°12'2 2.0
2016-Jun-19 18:33N 39°32' W 074°15'3 2.8
2016-Jun-19 17:32N 39°34' W 074°12'9 9.0
2016-Jun-19 16:33N 39°41' W 074°04'4 3.6
2016-Jun-19 15:33N 39°38' W 074°07'8 8.2
2016-Jun-19 14:33N 39°32' W 074°15'0 0.0
2016-Jun-19 13:32N 39°32' W 074°15'5 5.5
2016-Jun-19 12:33N 39°36' W 074°10'7 6.7
2016-Jun-19 11:33N 39°41' W 074°04'6 5.6
2016-Jun-19 10:33N 39°37' W 074°08'7 6.7
2016-Jun-19 09:33N 39°32' W 074°15'0 0.0
2016-Jun-19 08:33N 39°32' W 074°14'8 7.7
2016-Jun-19 07:33N 39°38' W 074°08'4 4.1
2016-Jun-19 06:33N 39°41' W 074°04'9 9.2
2016-Jun-19 05:33N 39°34' W 074°12'3 2.7
2016-Jun-19 04:33N 39°32' W 074°15'3 3.4
2016-Jun-19 03:33N 39°34' W 074°11'9 8.8
2016-Jun-19 02:33N 39°41' W 074°04'4 3.7
2016-Jun-19 01:33N 39°38' W 074°07'8 8.4
2016-Jun-19 00:33N 39°32' W 074°15'  

Dump ship's entire track history